sensor_id;sensor_type;location;lat;lon;timestamp;pressure;altitude;pressure_sealevel;temperature;humidity
38939;BME280;24211;49.980;19.776;2023-08-31T00:01:37;98550.56;;;17.02;100.00
38939;BME280;24211;49.980;19.776;2023-08-31T00:04:06;98546.78;;;17.03;100.00
38939;BME280;24211;49.980;19.776;2023-08-31T00:06:42;98544.59;;;17.05;100.00
38939;BME280;24211;49.980;19.776;2023-08-31T00:09:12;98546.19;;;17.06;100.00
38939;BME280;24211;49.980;19.776;2023-08-31T00:11:39;98548.38;;;17.04;100.00
38939;BME280;24211;49.980;19.776;2023-08-31T00:14:07;98548.94;;;17.00;100.00
38939;BME280;24211;49.980;19.776;2023-08-31T00:16:34;98546.78;;;17.03;100.00
38939;BME280;24211;49.980;19.776;2023-08-31T00:19:02;98543.78;;;17.04;100.00
38939;BME280;24211;49.980;19.776;2023-08-31T00:21:29;98561.59;;;17.05;100.00
38939;BME280;24211;49.980;19.776;2023-08-31T00:23:57;98554.28;;;17.06;100.00
38939;BME280;24211;49.980;19.776;2023-08-31T00:26:25;98560.78;;;17.05;100.00
38939;BME280;24211;49.980;19.776;2023-08-31T00:28:52;98559.19;;;17.04;100.00
38939;BME280;24211;49.980;19.776;2023-08-31T00:31:22;98559.19;;;17.04;100.00
38939;BME280;24211;49.980;19.776;2023-08-31T00:33:49;98552.19;;;17.03;100.00
38939;BME280;24211;49.980;19.776;2023-08-31T00:36:17;98552.44;;;17.01;100.00
38939;BME280;24211;49.980;19.776;2023-08-31T00:38:45;98552.75;;;16.99;100.00
38939;BME280;24211;49.980;19.776;2023-08-31T00:41:12;98556.53;;;16.98;100.00
38939;BME280;24211;49.980;19.776;2023-08-31T00:43:40;98554.13;;;16.97;100.00
38939;BME280;24211;49.980;19.776;2023-08-31T00:46:07;98554.94;;;16.97;100.00
38939;BME280;24211;49.980;19.776;2023-08-31T00:48:34;98557.09;;;16.95;100.00
38939;BME280;24211;49.980;19.776;2023-08-31T00:51:02;98562.47;;;16.95;100.00
38939;BME280;24211;49.980;19.776;2023-08-31T00:53:31;98560.06;;;16.94;100.00
38939;BME280;24211;49.980;19.776;2023-08-31T00:55:59;98563.59;;;16.94;100.00
38939;BME280;24211;49.980;19.776;2023-08-31T00:58:27;98561.97;;;16.93;100.00
38939;BME280;24211;49.980;19.776;2023-08-31T01:01:26;98561.44;;;16.91;100.00
38939;BME280;24211;49.980;19.776;2023-08-31T01:04:22;98558.75;;;16.91;100.00
38939;BME280;24211;49.980;19.776;2023-08-31T01:07:02;98556.06;;;16.91;100.00
38939;BME280;24211;49.980;19.776;2023-08-31T01:09:50;98553.06;;;16.93;100.00
38939;BME280;24211;49.980;19.776;2023-08-31T01:12:49;98549.03;;;16.90;100.00
38939;BME280;24211;49.980;19.776;2023-08-31T01:15:18;98544.22;;;16.87;100.00
38939;BME280;24211;49.980;19.776;2023-08-31T01:17:54;98555.03;;;16.87;100.00
38939;BME280;24211;49.980;19.776;2023-08-31T01:20:55;98551.50;;;16.87;100.00
38939;BME280;24211;49.980;19.776;2023-08-31T01:23:52;98557.72;;;16.87;100.00
38939;BME280;24211;49.980;19.776;2023-08-31T01:26:24;98560.41;;;16.87;100.00
38939;BME280;24211;49.980;19.776;2023-08-31T01:28:52;98560.97;;;16.84;100.00
38939;BME280;24211;49.980;19.776;2023-08-31T01:31:20;98559.66;;;16.82;100.00
38939;BME280;24211;49.980;19.776;2023-08-31T01:33:48;98566.94;;;16.81;100.00
38939;BME280;24211;49.980;19.776;2023-08-31T01:36:48;98563.41;;;16.81;100.00
38939;BME280;24211;49.980;19.776;2023-08-31T01:39:34;98564.22;;;16.81;100.00
38939;BME280;24211;49.980;19.776;2023-08-31T01:42:11;98570.75;;;16.80;100.00
38939;BME280;24211;49.980;19.776;2023-08-31T01:44:41;98569.91;;;16.80;100.00
38939;BME280;24211;49.980;19.776;2023-08-31T01:47:10;98572.88;;;16.78;100.00
38939;BME280;24211;49.980;19.776;2023-08-31T01:49:40;98572.88;;;16.78;100.00
38939;BME280;24211;49.980;19.776;2023-08-31T01:52:08;98582.09;;;16.77;100.00
38939;BME280;24211;49.980;19.776;2023-08-31T01:54:36;98585.34;;;16.74;100.00
38939;BME280;24211;49.980;19.776;2023-08-31T01:57:06;98581.56;;;16.75;100.00
38939;BME280;24211;49.980;19.776;2023-08-31T01:59:43;98578.63;;;16.72;100.00
38939;BME280;24211;49.980;19.776;2023-08-31T02:02:11;98587.00;;;16.70;100.00
38939;BME280;24211;49.980;19.776;2023-08-31T02:04:38;98584.00;;;16.72;100.00
38939;BME280;24211;49.980;19.776;2023-08-31T02:07:05;98590.22;;;16.72;100.00
38939;BME280;24211;49.980;19.776;2023-08-31T02:09:33;98592.91;;;16.72;100.00
38939;BME280;24211;49.980;19.776;2023-08-31T02:12:04;98589.69;;;16.70;100.00
38939;BME280;24211;49.980;19.776;2023-08-31T02:14:31;98592.41;;;16.70;100.00
38939;BME280;24211;49.980;19.776;2023-08-31T02:16:58;98604.78;;;16.71;100.00
38939;BME280;24211;49.980;19.776;2023-08-31T02:19:26;98598.56;;;16.71;100.00
38939;BME280;24211;49.980;19.776;2023-08-31T02:21:53;98608.03;;;16.68;100.00
38939;BME280;24211;49.980;19.776;2023-08-31T02:24:20;98609.66;;;16.69;100.00
38939;BME280;24211;49.980;19.776;2023-08-31T02:26:48;98609.13;;;16.67;100.00
38939;BME280;24211;49.980;19.776;2023-08-31T02:29:17;98616.94;;;16.69;100.00
38939;BME280;24211;49.980;19.776;2023-08-31T02:31:44;98606.44;;;16.67;100.00
38939;BME280;24211;49.980;19.776;2023-08-31T02:34:12;98617.25;;;16.67;100.00
38939;BME280;24211;49.980;19.776;2023-08-31T02:36:39;98610.22;;;16.66;100.00
38939;BME280;24211;49.980;19.776;2023-08-31T02:39:06;98619.13;;;16.67;100.00
38939;BME280;24211;49.980;19.776;2023-08-31T02:41:36;98612.91;;;16.66;100.00
38939;BME280;24211;49.980;19.776;2023-08-31T02:44:04;98618.84;;;16.68;100.00
38939;BME280;24211;49.980;19.776;2023-08-31T02:46:31;98621.53;;;16.68;100.00
38939;BME280;24211;49.980;19.776;2023-08-31T02:48:58;98615.63;;;16.66;100.00
38939;BME280;24211;49.980;19.776;2023-08-31T02:51:27;98616.72;;;16.65;100.00
38939;BME280;24211;49.980;19.776;2023-08-31T02:53:54;98615.09;;;16.64;100.00
38939;BME280;24211;49.980;19.776;2023-08-31T02:56:22;98616.72;;;16.65;100.00
38939;BME280;24211;49.980;19.776;2023-08-31T02:58:49;98616.19;;;16.63;100.00
38939;BME280;24211;49.980;19.776;2023-08-31T03:01:17;98611.06;;;16.62;100.00
38939;BME280;24211;49.980;19.776;2023-08-31T03:03:47;98610.25;;;16.61;100.00
38939;BME280;24211;49.980;19.776;2023-08-31T03:06:14;98607.56;;;16.61;100.00
38939;BME280;24211;49.980;19.776;2023-08-31T03:08:42;98616.47;;;16.62;100.00
38939;BME280;24211;49.980;19.776;2023-08-31T03:11:09;98620.25;;;16.61;100.00
38939;BME280;24211;49.980;19.776;2023-08-31T03:13:36;98616.75;;;16.60;100.00
38939;BME280;24211;49.980;19.776;2023-08-31T03:16:04;98620.25;;;16.61;100.00
38939;BME280;24211;49.980;19.776;2023-08-31T03:18:32;98624.03;;;16.60;100.00
38939;BME280;24211;49.980;19.776;2023-08-31T03:20:59;98625.91;;;16.59;100.00
38939;BME280;24211;49.980;19.776;2023-08-31T03:23:28;98621.63;;;16.58;100.00
38939;BME280;24211;49.980;19.776;2023-08-31T03:25:57;98623.78;;;16.56;100.00
38939;BME280;24211;49.980;19.776;2023-08-31T03:28:26;98618.38;;;16.56;100.00
38939;BME280;24211;49.980;19.776;2023-08-31T03:30:55;98620.28;;;16.56;100.00
38939;BME280;24211;49.980;19.776;2023-08-31T03:33:23;98620.56;;;16.54;100.00
38939;BME280;24211;49.980;19.776;2023-08-31T03:35:50;98618.16;;;16.53;100.00
38939;BME280;24211;49.980;19.776;2023-08-31T03:38:17;98618.38;;;16.51;100.00
38939;BME280;24211;49.980;19.776;2023-08-31T03:40:55;98623.25;;;16.49;100.00
38939;BME280;24211;49.980;19.776;2023-08-31T03:43:22;98622.19;;;16.50;100.00
38939;BME280;24211;49.980;19.776;2023-08-31T03:45:54;98627.84;;;16.49;100.00
38939;BME280;24211;49.980;19.776;2023-08-31T03:48:25;98635.13;;;16.48;100.00
38939;BME280;24211;49.980;19.776;2023-08-31T03:50:53;98634.03;;;16.49;100.00
38939;BME280;24211;49.980;19.776;2023-08-31T03:53:22;98644.81;;;16.49;100.00
38939;BME280;24211;49.980;19.776;2023-08-31T03:55:53;98649.69;;;16.47;100.00
38939;BME280;24211;49.980;19.776;2023-08-31T03:58:22;98648.09;;;16.46;100.00
38939;BME280;24211;49.980;19.776;2023-08-31T04:00:52;98650.81;;;16.46;100.00
38939;BME280;24211;49.980;19.776;2023-08-31T04:03:19;98649.19;;;16.45;100.00
38939;BME280;24211;49.980;19.776;2023-08-31T04:05:48;98648.38;;;16.45;100.00
38939;BME280;24211;49.980;19.776;2023-08-31T04:08:15;98646.78;;;16.44;100.00
38939;BME280;24211;49.980;19.776;2023-08-31T04:10:42;98652.94;;;16.44;100.00
38939;BME280;24211;49.980;19.776;2023-08-31T04:13:09;98654.31;;;16.42;100.00
38939;BME280;24211;49.980;19.776;2023-08-31T04:15:37;98653.53;;;16.41;100.00
38939;BME280;24211;49.980;19.776;2023-08-31T04:18:04;98651.91;;;16.40;100.00
38939;BME280;24211;49.980;19.776;2023-08-31T04:20:33;98657.00;;;16.42;100.00
38939;BME280;24211;49.980;19.776;2023-08-31T04:23:03;98653.53;;;16.41;100.00
38939;BME280;24211;49.980;19.776;2023-08-31T04:25:31;98651.91;;;16.40;100.00
38939;BME280;24211;49.980;19.776;2023-08-31T04:27:58;98656.47;;;16.40;100.00
38939;BME280;24211;49.980;19.776;2023-08-31T04:30:27;98661.06;;;16.39;100.00
38939;BME280;24211;49.980;19.776;2023-08-31T04:32:54;98669.16;;;16.39;100.00
38939;BME280;24211;49.980;19.776;2023-08-31T04:35:21;98671.84;;;16.39;100.00
38939;BME280;24211;49.980;19.776;2023-08-31T04:37:48;98677.25;;;16.39;100.00
38939;BME280;24211;49.980;19.776;2023-08-31T04:40:15;98675.88;;;16.42;100.00
38939;BME280;24211;49.980;19.776;2023-08-31T04:42:43;98668.91;;;16.41;100.00
38939;BME280;24211;49.980;19.776;2023-08-31T04:45:11;98679.69;;;16.41;100.00
38939;BME280;24211;49.980;19.776;2023-08-31T04:47:39;98687.47;;;16.42;100.00
38939;BME280;24211;49.980;19.776;2023-08-31T04:50:07;98680.50;;;16.41;100.00
38939;BME280;24211;49.980;19.776;2023-08-31T04:52:34;98681.28;;;16.42;100.00
38939;BME280;24211;49.980;19.776;2023-08-31T04:55:05;98682.09;;;16.42;100.00
38939;BME280;24211;49.980;19.776;2023-08-31T04:57:35;98682.63;;;16.44;100.00
38939;BME280;24211;49.980;19.776;2023-08-31T05:00:06;98681.53;;;16.45;100.00
38939;BME280;24211;49.980;19.776;2023-08-31T05:02:36;98686.94;;;16.45;100.00
38939;BME280;24211;49.980;19.776;2023-08-31T05:05:04;98691.25;;;16.46;100.00
38939;BME280;24211;49.980;19.776;2023-08-31T05:07:32;98690.16;;;16.47;100.00
38939;BME280;24211;49.980;19.776;2023-08-31T05:09:59;98696.06;;;16.49;100.00
38939;BME280;24211;49.980;19.776;2023-08-31T05:12:26;98698.78;;;16.49;100.00
38939;BME280;24211;49.980;19.776;2023-08-31T05:14:54;98702.00;;;16.51;100.00
38939;BME280;24211;49.980;19.776;2023-08-31T05:17:21;98699.88;;;16.53;100.00
38939;BME280;24211;49.980;19.776;2023-08-31T05:19:49;98702.28;;;16.55;100.00
38939;BME280;24211;49.980;19.776;2023-08-31T05:22:17;98708.72;;;16.59;100.00
38939;BME280;24211;49.980;19.776;2023-08-31T05:24:45;98703.06;;;16.60;100.00
38939;BME280;24211;49.980;19.776;2023-08-31T05:27:12;98705.22;;;16.63;100.00
38939;BME280;24211;49.980;19.776;2023-08-31T05:29:39;98711.16;;;16.65;100.00
38939;BME280;24211;49.980;19.776;2023-08-31T05:32:06;98711.91;;;16.71;100.00
38939;BME280;24211;49.980;19.776;2023-08-31T05:34:34;98713.78;;;16.75;100.00
38939;BME280;24211;49.980;19.776;2023-08-31T05:37:05;98713.22;;;16.78;100.00
38939;BME280;24211;49.980;19.776;2023-08-31T05:39:32;98712.66;;;16.81;100.00
38939;BME280;24211;49.980;19.776;2023-08-31T05:42:00;98710.22;;;16.85;100.00
38939;BME280;24211;49.980;19.776;2023-08-31T05:44:30;98720.72;;;16.86;100.00
38939;BME280;24211;49.980;19.776;2023-08-31T05:46:57;98720.16;;;16.89;100.00
38939;BME280;24211;49.980;19.776;2023-08-31T05:49:24;98710.41;;;16.93;100.00
38939;BME280;24211;49.980;19.776;2023-08-31T05:51:51;98714.97;;;16.98;100.00
38939;BME280;24211;49.980;19.776;2023-08-31T05:54:19;98714.16;;;17.03;100.00
38939;BME280;24211;49.980;19.776;2023-08-31T05:56:46;98717.38;;;17.05;100.00
38939;BME280;24211;49.980;19.776;2023-08-31T05:59:15;98726.22;;;17.10;100.00
38939;BME280;24211;49.980;19.776;2023-08-31T06:01:43;98720.53;;;17.17;100.00
38939;BME280;24211;49.980;19.776;2023-08-31T06:04:11;98719.94;;;17.25;100.00
38939;BME280;24211;49.980;19.776;2023-08-31T06:06:38;98713.94;;;17.28;100.00
38939;BME280;24211;49.980;19.776;2023-08-31T06:09:05;98709.31;;;17.33;100.00
38939;BME280;24211;49.980;19.776;2023-08-31T06:11:34;98719.78;;;17.40;100.00
38939;BME280;24211;49.980;19.776;2023-08-31T06:14:04;98731.06;;;17.47;100.00
38939;BME280;24211;49.980;19.776;2023-08-31T06:16:31;98734.28;;;17.54;100.00
38939;BME280;24211;49.980;19.776;2023-08-31T06:18:59;98727.47;;;17.61;100.00
38939;BME280;24211;49.980;19.776;2023-08-31T06:21:28;98717.13;;;17.69;100.00
38939;BME280;24211;49.980;19.776;2023-08-31T06:23:55;98716.78;;;17.75;100.00
38939;BME280;24211;49.980;19.776;2023-08-31T06:26:22;98714.56;;;17.82;100.00
38939;BME280;24211;49.980;19.776;2023-08-31T06:28:49;98720.94;;;17.91;100.00
38939;BME280;24211;49.980;19.776;2023-08-31T06:31:17;98718.13;;;18.01;100.00
38939;BME280;24211;49.980;19.776;2023-08-31T06:33:45;98713.94;;;18.14;100.00
38939;BME280;24211;49.980;19.776;2023-08-31T06:36:12;98717.41;;;18.19;100.00
38939;BME280;24211;49.980;19.776;2023-08-31T06:38:39;98718.34;;;18.28;100.00
38939;BME280;24211;49.980;19.776;2023-08-31T06:41:06;98717.72;;;18.37;100.00
38939;BME280;24211;49.980;19.776;2023-08-31T06:43:34;98722.00;;;18.43;100.00
38939;BME280;24211;49.980;19.776;2023-08-31T06:46:01;98727.88;;;18.50;100.00
38939;BME280;24211;49.980;19.776;2023-08-31T06:48:50;98718.47;;;18.66;100.00
38939;BME280;24211;49.980;19.776;2023-08-31T06:51:17;98728.06;;;18.77;100.00
38939;BME280;24211;49.980;19.776;2023-08-31T06:53:46;98727.91;;;18.87;100.00
38939;BME280;24211;49.980;19.776;2023-08-31T06:56:13;98725.59;;;18.99;100.00
38939;BME280;24211;49.980;19.776;2023-08-31T06:58:40;98732.44;;;19.10;100.00
38939;BME280;24211;49.980;19.776;2023-08-31T07:01:07;98734.50;;;19.18;100.00
38939;BME280;24211;49.980;19.776;2023-08-31T07:03:36;98735.13;;;19.29;100.00
38939;BME280;24211;49.980;19.776;2023-08-31T07:06:03;98740.41;;;19.39;100.00
38939;BME280;24211;49.980;19.776;2023-08-31T07:08:30;98743.25;;;19.47;100.00
38939;BME280;24211;49.980;19.776;2023-08-31T07:10:57;98746.91;;;19.56;100.00
38939;BME280;24211;49.980;19.776;2023-08-31T07:13:25;98748.94;;;19.65;100.00
38939;BME280;24211;49.980;19.776;2023-08-31T07:15:53;98755.78;;;19.76;100.00
38939;BME280;24211;49.980;19.776;2023-08-31T07:18:21;98763.75;;;19.86;100.00
38939;BME280;24211;49.980;19.776;2023-08-31T07:20:48;98750.59;;;19.93;100.00
38939;BME280;24211;49.980;19.776;2023-08-31T07:23:16;98754.84;;;19.99;100.00
38939;BME280;24211;49.980;19.776;2023-08-31T07:25:43;98752.03;;;20.04;100.00
38939;BME280;24211;49.980;19.776;2023-08-31T07:28:10;98753.03;;;20.08;100.00
38939;BME280;24211;49.980;19.776;2023-08-31T07:30:38;98756.69;;;20.17;100.00
38939;BME280;24211;49.980;19.776;2023-08-31T07:33:07;98761.13;;;20.27;100.00
38939;BME280;24211;49.980;19.776;2023-08-31T07:35:54;98754.69;;;20.36;100.00
38939;BME280;24211;49.980;19.776;2023-08-31T07:38:21;98752.88;;;20.45;100.00
38939;BME280;24211;49.980;19.776;2023-08-31T07:40:48;98760.44;;;20.48;100.00
38939;BME280;24211;49.980;19.776;2023-08-31T07:43:16;98761.31;;;20.57;100.00
38939;BME280;24211;49.980;19.776;2023-08-31T07:45:43;98767.53;;;20.71;100.00
38939;BME280;24211;49.980;19.776;2023-08-31T07:48:11;98767.84;;;20.83;100.00
38939;BME280;24211;49.980;19.776;2023-08-31T07:50:41;98773.56;;;20.96;100.00
38939;BME280;24211;49.980;19.776;2023-08-31T07:53:09;98763.75;;;21.08;100.00
38939;BME280;24211;49.980;19.776;2023-08-31T07:55:37;98761.63;;;21.19;100.00
38939;BME280;24211;49.980;19.776;2023-08-31T07:58:04;98764.44;;;21.27;100.00
38939;BME280;24211;49.980;19.776;2023-08-31T08:00:31;98768.34;;;21.35;100.00
38939;BME280;24211;49.980;19.776;2023-08-31T08:02:59;98764.25;;;21.46;100.00
38939;BME280;24211;49.980;19.776;2023-08-31T08:05:29;98756.94;;;21.55;100.00
38939;BME280;24211;49.980;19.776;2023-08-31T08:07:56;98759.25;;;21.62;100.00
38939;BME280;24211;49.980;19.776;2023-08-31T08:10:25;98773.22;;;21.69;100.00
38939;BME280;24211;49.980;19.776;2023-08-31T08:12:52;98772.28;;;21.73;100.00
38939;BME280;24211;49.980;19.776;2023-08-31T08:15:19;98773.13;;;21.82;100.00
38939;BME280;24211;49.980;19.776;2023-08-31T08:17:47;98773.03;;;21.87;100.00
38939;BME280;24211;49.980;19.776;2023-08-31T08:20:15;98776.22;;;21.89;100.00
38939;BME280;24211;49.980;19.776;2023-08-31T08:22:42;98769.06;;;21.93;100.00
38939;BME280;24211;49.980;19.776;2023-08-31T08:25:10;98784.47;;;21.98;100.00
38939;BME280;24211;49.980;19.776;2023-08-31T08:27:37;98786.38;;;21.97;100.00
38939;BME280;24211;49.980;19.776;2023-08-31T08:30:06;98799.00;;;21.93;100.00
38939;BME280;24211;49.980;19.776;2023-08-31T08:32:33;98794.19;;;21.90;100.00
38939;BME280;24211;49.980;19.776;2023-08-31T08:35:01;98792.16;;;21.82;100.00
38939;BME280;24211;49.980;19.776;2023-08-31T08:37:31;98801.25;;;21.78;100.00
38939;BME280;24211;49.980;19.776;2023-08-31T08:40:01;98802.69;;;21.75;100.00
38939;BME280;24211;49.980;19.776;2023-08-31T08:42:30;98798.38;;;21.74;100.00
38939;BME280;24211;49.980;19.776;2023-08-31T08:45:04;98804.91;;;21.73;100.00
38939;BME280;24211;49.980;19.776;2023-08-31T08:47:33;98806.53;;;21.74;100.00
38939;BME280;24211;49.980;19.776;2023-08-31T08:50:00;98801.47;;;21.81;100.00
38939;BME280;24211;49.980;19.776;2023-08-31T08:52:30;98794.19;;;21.90;100.00
38939;BME280;24211;49.980;19.776;2023-08-31T08:54:58;98801.59;;;21.98;100.00
38939;BME280;24211;49.980;19.776;2023-08-31T08:57:30;98799.22;;;22.05;100.00
38939;BME280;24211;49.980;19.776;2023-08-31T08:59:58;98799.66;;;22.21;100.00
38939;BME280;24211;49.980;19.776;2023-08-31T09:02:25;98782.28;;;22.48;100.00
38939;BME280;24211;49.980;19.776;2023-08-31T09:04:52;98787.59;;;22.53;100.00
38939;BME280;24211;49.980;19.776;2023-08-31T09:07:22;98798.34;;;22.58;100.00
38939;BME280;24211;49.980;19.776;2023-08-31T09:09:54;98797.53;;;22.57;100.00
38939;BME280;24211;49.980;19.776;2023-08-31T09:12:23;98807.53;;;22.70;100.00
38939;BME280;24211;49.980;19.776;2023-08-31T09:14:59;98813.63;;;22.67;100.00
38939;BME280;24211;49.980;19.776;2023-08-31T09:17:38;98810.91;;;22.67;100.00
38939;BME280;24211;49.980;19.776;2023-08-31T09:20:07;98813.16;;;22.74;100.00
38939;BME280;24211;49.980;19.776;2023-08-31T09:22:36;98816.56;;;22.80;100.00
38939;BME280;24211;49.980;19.776;2023-08-31T09:25:08;98817.38;;;22.80;100.00
38939;BME280;24211;49.980;19.776;2023-08-31T09:27:39;98813.84;;;22.88;100.00
38939;BME280;24211;49.980;19.776;2023-08-31T09:30:07;98812.59;;;22.94;100.00
38939;BME280;24211;49.980;19.776;2023-08-31T09:32:36;98812.09;;;22.92;100.00
38939;BME280;24211;49.980;19.776;2023-08-31T09:35:08;98804.88;;;22.96;100.00
38939;BME280;24211;49.980;19.776;2023-08-31T09:37:55;98810.53;;;23.00;100.00
38939;BME280;24211;49.980;19.776;2023-08-31T09:40:26;98812.28;;;23.04;100.00
38939;BME280;24211;49.980;19.776;2023-08-31T09:42:53;98811.97;;;23.06;100.00
38939;BME280;24211;49.980;19.776;2023-08-31T09:45:32;98819.31;;;23.05;100.00
38939;BME280;24211;49.980;19.776;2023-08-31T09:48:04;98823.81;;;23.01;100.00
38939;BME280;24211;49.980;19.776;2023-08-31T09:50:33;98823.81;;;23.01;100.00
38939;BME280;24211;49.980;19.776;2023-08-31T09:53:06;98830.22;;;23.05;100.00
38939;BME280;24211;49.980;19.776;2023-08-31T09:55:40;98833.13;;;23.09;100.00
38939;BME280;24211;49.980;19.776;2023-08-31T09:58:08;98824.81;;;23.14;100.00
38939;BME280;24211;49.980;19.776;2023-08-31T10:00:43;98833.47;;;23.33;100.00
38939;BME280;24211;49.980;19.776;2023-08-31T10:03:12;98833.53;;;23.42;100.00
38939;BME280;24211;49.980;19.776;2023-08-31T10:05:48;98827.59;;;23.65;100.00
38939;BME280;24211;49.980;19.776;2023-08-31T10:08:18;98836.06;;;23.98;100.00
38939;BME280;24211;49.980;19.776;2023-08-31T10:10:46;98835.06;;;24.28;100.00
38939;BME280;24211;49.980;19.776;2023-08-31T10:13:14;98827.31;;;24.30;100.00
38939;BME280;24211;49.980;19.776;2023-08-31T10:15:46;98827.66;;;24.37;100.00
38939;BME280;24211;49.980;19.776;2023-08-31T10:18:16;98837.53;;;24.50;100.00
38939;BME280;24211;49.980;19.776;2023-08-31T10:20:43;98829.47;;;24.62;100.00
38939;BME280;24211;49.980;19.776;2023-08-31T10:23:13;98839.22;;;24.81;100.00
38939;BME280;24211;49.980;19.776;2023-08-31T10:28:25;98829.22;;;25.14;100.00
38939;BME280;24211;49.980;19.776;2023-08-31T10:31:06;98827.25;;;25.23;100.00
38939;BME280;24211;49.980;19.776;2023-08-31T10:33:39;98829.25;;;25.34;100.00
38939;BME280;24211;49.980;19.776;2023-08-31T10:36:16;98829.69;;;25.45;100.00
38939;BME280;24211;49.980;19.776;2023-08-31T10:39:00;98832.34;;;25.54;100.00
38939;BME280;24211;49.980;19.776;2023-08-31T10:41:35;98829.81;;;25.69;100.00
38939;BME280;24211;49.980;19.776;2023-08-31T10:44:26;98831.94;;;25.84;100.00
38939;BME280;24211;49.980;19.776;2023-08-31T10:46:54;98829.00;;;26.02;100.00
38939;BME280;24211;49.980;19.776;2023-08-31T10:49:23;98833.88;;;26.17;100.00
38939;BME280;24211;49.980;19.776;2023-08-31T10:52:14;98823.72;;;26.29;100.00
38939;BME280;24211;49.980;19.776;2023-08-31T10:54:55;98831.22;;;26.53;100.00
38939;BME280;24211;49.980;19.776;2023-08-31T10:57:30;98831.25;;;26.77;100.00
38939;BME280;24211;49.980;19.776;2023-08-31T10:59:58;98831.94;;;26.86;100.00
38939;BME280;24211;49.980;19.776;2023-08-31T11:02:37;98833.19;;;26.89;100.00
38939;BME280;24211;49.980;19.776;2023-08-31T11:05:18;98829.19;;;26.98;100.00
38939;BME280;24211;49.980;19.776;2023-08-31T11:07:51;98833.19;;;27.01;100.00
38939;BME280;24211;49.980;19.776;2023-08-31T11:10:25;98833.06;;;27.09;100.00
38939;BME280;24211;49.980;19.776;2023-08-31T11:12:56;98825.72;;;27.25;100.00
38939;BME280;24211;49.980;19.776;2023-08-31T11:15:27;98827.78;;;27.41;100.00
38939;BME280;24211;49.980;19.776;2023-08-31T11:17:55;98812.44;;;27.52;100.00
38939;BME280;24211;49.980;19.776;2023-08-31T11:20:24;98810.09;;;27.66;100.00
38939;BME280;24211;49.980;19.776;2023-08-31T11:22:56;98811.03;;;27.85;100.00
38939;BME280;24211;49.980;19.776;2023-08-31T11:25:24;98817.75;;;28.00;100.00
38939;BME280;24211;49.980;19.776;2023-08-31T11:27:54;98812.19;;;28.12;100.00
38939;BME280;24211;49.980;19.776;2023-08-31T11:30:24;98812.81;;;28.21;100.00
38939;BME280;24211;49.980;19.776;2023-08-31T11:32:52;98812.28;;;28.31;100.00
38939;BME280;24211;49.980;19.776;2023-08-31T11:35:22;98813.56;;;28.49;100.00
38939;BME280;24211;49.980;19.776;2023-08-31T11:37:55;98803.47;;;28.69;100.00
38939;BME280;24211;49.980;19.776;2023-08-31T11:40:23;98809.75;;;28.85;100.00
38939;BME280;24211;49.980;19.776;2023-08-31T11:42:51;98809.13;;;28.92;100.00
38939;BME280;24211;49.980;19.776;2023-08-31T11:45:20;98805.47;;;29.03;100.00
38939;BME280;24211;49.980;19.776;2023-08-31T11:47:50;98805.72;;;29.14;100.00
38939;BME280;24211;49.980;19.776;2023-08-31T11:50:18;98797.19;;;29.19;100.00
38939;BME280;24211;49.980;19.776;2023-08-31T11:52:47;98806.56;;;29.18;100.00
38939;BME280;24211;49.980;19.776;2023-08-31T11:55:16;98808.81;;;29.12;100.00
38939;BME280;24211;49.980;19.776;2023-08-31T11:57:52;98795.97;;;29.01;100.00
38939;BME280;24211;49.980;19.776;2023-08-31T12:00:23;98798.13;;;28.92;100.00
38939;BME280;24211;49.980;19.776;2023-08-31T12:03:00;98811.97;;;28.80;100.00
38939;BME280;24211;49.980;19.776;2023-08-31T12:05:45;98798.50;;;28.75;100.00
38939;BME280;24211;49.980;19.776;2023-08-31T12:08:14;98791.84;;;28.76;100.00
38939;BME280;24211;49.980;19.776;2023-08-31T12:10:42;98790.69;;;28.77;100.00
38939;BME280;24211;49.980;19.776;2023-08-31T12:13:11;98787.50;;;28.75;100.00
38939;BME280;24211;49.980;19.776;2023-08-31T12:15:40;98790.69;;;28.77;100.00
38939;BME280;24211;49.980;19.776;2023-08-31T12:18:14;98784.56;;;28.83;100.00
38939;BME280;24211;49.980;19.776;2023-08-31T12:20:46;98780.88;;;28.95;100.00
38939;BME280;24211;49.980;19.776;2023-08-31T12:23:14;98789.25;;;29.33;100.00
38939;BME280;24211;49.980;19.776;2023-08-31T12:25:49;98781.28;;;29.47;78.85
38939;BME280;24211;49.980;19.776;2023-08-31T12:28:22;98782.28;;;29.58;72.82
38939;BME280;24211;49.980;19.776;2023-08-31T12:30:55;98772.44;;;29.76;69.63
38939;BME280;24211;49.980;19.776;2023-08-31T12:33:25;98772.94;;;30.01;63.26
38939;BME280;24211;49.980;19.776;2023-08-31T12:35:52;98774.69;;;30.13;59.73
38939;BME280;24211;49.980;19.776;2023-08-31T12:38:20;98776.06;;;30.00;61.65
38939;BME280;24211;49.980;19.776;2023-08-31T12:40:47;98774.31;;;29.92;65.40
38939;BME280;24211;49.980;19.776;2023-08-31T12:43:14;98777.59;;;29.97;66.06
38939;BME280;24211;49.980;19.776;2023-08-31T12:45:44;98772.19;;;30.04;65.21
38939;BME280;24211;49.980;19.776;2023-08-31T12:48:11;98771.53;;;30.11;66.86
38939;BME280;24211;49.980;19.776;2023-08-31T12:50:39;98767.34;;;30.20;68.96
38939;BME280;24211;49.980;19.776;2023-08-31T12:53:06;98762.72;;;30.24;69.02
38939;BME280;24211;49.980;19.776;2023-08-31T12:55:33;98769.94;;;30.55;64.44
38939;BME280;24211;49.980;19.776;2023-08-31T12:58:00;98769.22;;;30.58;64.20